Time;durP1;ratioP1;P1;durP2;ratioP2;P2;SDS_P1;SDS_P2;PMS_P1;PMS_P2;Temp;Humidity;BMP_temperature;BMP_pressure;BME280_temperature;BME280_humidity;BME280_pressure;Samples;Min_cycle;Max_cycle;Signal;HPM_P1;HPM_P2
2022/05/13 00:01:59;;;;;;;1.20;1.10;;;16.80;99.90;;;;;;5093200;28;20448;-83
2022/05/13 00:04:26;;;;;;;0.83;0.80;;;16.80;99.90;;;;;;5093269;28;20455;-84
2022/05/13 00:06:53;;;;;;;1.30;1.00;;;16.80;99.90;;;;;;5092871;28;20935;-83
2022/05/13 00:09:21;;;;;;;1.77;0.77;;;16.80;99.90;;;;;;5092931;28;20436;-84
2022/05/13 00:11:48;;;;;;;1.80;1.13;;;16.80;99.90;;;;;;5092910;28;20544;-83
2022/05/13 00:14:16;;;;;;;1.03;0.80;;;16.70;99.90;;;;;;5093184;28;20813;-83
2022/05/13 00:16:43;;;;;;;0.80;0.73;;;16.70;99.90;;;;;;5092973;28;20463;-84
2022/05/13 00:19:10;;;;;;;4.20;1.27;;;16.70;99.90;;;;;;5093124;28;20440;-83
2022/05/13 00:21:37;;;;;;;1.43;1.33;;;16.70;99.90;;;;;;5092669;28;20892;-84
2022/05/13 00:24:05;;;;;;;0.70;0.70;;;16.60;99.90;;;;;;5092767;28;20447;-84
2022/05/13 00:26:32;;;;;;;0.80;0.67;;;16.60;99.90;;;;;;5093018;28;20452;-83
2022/05/13 00:28:58;;;;;;;0.77;0.77;;;16.60;99.90;;;;;;5093380;28;20476;-83
2022/05/13 00:31:26;;;;;;;1.00;0.90;;;16.60;99.90;;;;;;5092647;28;20489;-83
2022/05/13 00:33:53;;;;;;;1.43;1.33;;;16.50;99.90;;;;;;5092992;28;20451;-83
2022/05/13 00:36:20;;;;;;;2.30;1.40;;;16.50;99.90;;;;;;5092626;28;20454;-83
2022/05/13 00:38:47;;;;;;;0.63;0.60;;;16.50;99.90;;;;;;5092929;28;20456;-83
2022/05/13 00:41:15;;;;;;;1.57;1.07;;;16.50;99.90;;;;;;5092403;28;20985;-83
2022/05/13 00:43:46;;;;;;;1.20;0.90;;;16.60;99.90;;;;;;5092903;28;20454;-83
2022/05/13 00:46:13;;;;;;;2.87;1.50;;;16.50;99.90;;;;;;5092563;28;20428;-83
2022/05/13 00:48:41;;;;;;;0.90;0.70;;;16.60;99.90;;;;;;5092503;28;20476;-84
2022/05/13 00:51:11;;;;;;;1.90;0.90;;;16.60;99.90;;;;;;5092405;28;20979;-83
2022/05/13 00:53:38;;;;;;;1.00;0.93;;;16.60;99.90;;;;;;5092754;28;20492;-84
2022/05/13 00:56:06;;;;;;;2.43;1.10;;;16.60;99.90;;;;;;5092768;28;20554;-83
2022/05/13 00:58:36;;;;;;;0.90;0.90;;;16.60;99.90;;;;;;5092766;28;20462;-83
2022/05/13 01:01:03;;;;;;;1.10;1.00;;;16.50;99.90;;;;;;5092320;28;20994;-83
2022/05/13 01:03:31;;;;;;;2.03;1.00;;;16.50;99.90;;;;;;5092759;28;20482;-83
2022/05/13 01:06:01;;;;;;;1.17;0.80;;;16.50;99.90;;;;;;5095160;28;20451;-83
2022/05/13 01:08:31;;;;;;;3.37;1.30;;;16.50;99.90;;;;;;5095861;28;21030;-83
2022/05/13 01:10:58;;;;;;;1.87;1.37;;;16.50;99.90;;;;;;5095812;28;20559;-84
2022/05/13 01:13:28;;;;;;;2.00;0.80;;;16.50;99.90;;;;;;5096135;28;20439;-83
2022/05/13 01:15:56;;;;;;;1.10;1.00;;;16.50;99.90;;;;;;5096082;28;20572;-83
2022/05/13 01:18:28;;;;;;;2.00;1.17;;;16.50;99.90;;;;;;5095789;28;20443;-84
2022/05/13 01:20:55;;;;;;;1.70;0.90;;;16.50;99.90;;;;;;5095906;28;20538;-84
2022/05/13 01:23:25;;;;;;;1.00;0.70;;;16.50;99.90;;;;;;5095915;28;20455;-83
2022/05/13 01:25:54;;;;;;;1.63;0.97;;;16.50;99.90;;;;;;5095697;28;20496;-81
2022/05/13 01:28:23;;;;;;;3.27;0.80;;;16.50;99.90;;;;;;5095768;28;20480;-80
2022/05/13 01:30:53;;;;;;;1.60;0.90;;;16.40;99.90;;;;;;5095752;28;21020;-80
2022/05/13 01:33:20;;;;;;;2.10;1.23;;;16.30;99.90;;;;;;5095760;28;20433;-81
2022/05/13 01:35:49;;;;;;;0.90;0.90;;;16.20;99.90;;;;;;5095472;28;20432;-81
2022/05/13 01:38:17;;;;;;;2.23;1.10;;;16.10;99.90;;;;;;5095908;28;20444;-82
2022/05/13 01:40:46;;;;;;;1.23;0.57;;;16.10;99.90;;;;;;5095241;28;20967;-82
2022/05/13 01:43:13;;;;;;;2.30;1.27;;;16.00;99.90;;;;;;5095596;28;20447;-82
2022/05/13 01:45:40;;;;;;;1.30;1.00;;;15.90;99.90;;;;;;5095510;28;20451;-82
2022/05/13 01:48:08;;;;;;;0.77;0.77;;;15.90;99.90;;;;;;5095446;28;20479;-82
2022/05/13 01:50:35;;;;;;;0.90;0.63;;;15.80;99.90;;;;;;5095636;28;20468;-82
2022/05/13 01:53:03;;;;;;;1.83;1.00;;;15.80;99.90;;;;;;5095184;28;20436;-82
2022/05/13 01:55:29;;;;;;;0.60;0.60;;;15.80;99.90;;;;;;5095388;28;20482;-82
2022/05/13 01:57:57;;;;;;;1.17;1.00;;;15.80;99.90;;;;;;5095302;28;20440;-82
2022/05/13 02:00:24;;;;;;;1.00;0.90;;;15.70;99.90;;;;;;5095258;28;20464;-82
2022/05/13 02:05:35;;;;;;;1.23;0.90;;;15.70;99.90;;;;;;5095244;28;20450;-82
2022/05/13 02:08:03;;;;;;;1.33;0.70;;;15.70;99.90;;;;;;5094959;28;20491;-82
2022/05/13 02:10:30;;;;;;;0.60;0.50;;;15.70;99.90;;;;;;5094956;28;20476;-82
2022/05/13 02:12:58;;;;;;;1.07;1.07;;;15.70;99.90;;;;;;5094668;28;20444;-82
2022/05/13 02:15:25;;;;;;;1.50;1.20;;;15.70;99.90;;;;;;5094701;28;20452;-82
2022/05/13 02:17:52;;;;;;;1.93;0.90;;;15.70;99.90;;;;;;5094615;28;20436;-81
2022/05/13 02:20:18;;;;;;;1.10;0.80;;;15.70;99.90;;;;;;5094782;28;20471;-82
2022/05/13 02:22:45;;;;;;;1.90;1.33;;;15.70;99.90;;;;;;5094520;28;20935;-82
2022/05/13 02:25:12;;;;;;;0.77;0.70;;;15.70;99.90;;;;;;5094789;28;20451;-82
2022/05/13 02:27:39;;;;;;;1.37;1.27;;;15.70;99.90;;;;;;5094590;28;20476;-82
2022/05/13 02:30:09;;;;;;;0.70;0.70;;;15.70;99.90;;;;;;5094666;28;20472;-82
2022/05/13 02:32:36;;;;;;;1.50;0.80;;;15.70;99.90;;;;;;5094336;28;20429;-82
2022/05/13 02:35:03;;;;;;;2.50;1.10;;;15.70;99.90;;;;;;5094313;28;20965;-82
2022/05/13 02:37:30;;;;;;;0.80;0.80;;;15.60;99.90;;;;;;5094472;28;20443;-82
2022/05/13 02:39:57;;;;;;;0.83;0.83;;;15.60;99.90;;;;;;5094121;28;20490;-82
2022/05/13 02:42:23;;;;;;;1.70;1.60;;;15.60;99.90;;;;;;5094353;28;20451;-82
2022/05/13 02:44:50;;;;;;;3.33;0.73;;;15.50;99.90;;;;;;5094387;28;20436;-81
2022/05/13 02:47:19;;;;;;;1.20;0.80;;;15.50;99.90;;;;;;5094326;28;20444;-82
2022/05/13 02:49:45;;;;;;;2.77;1.20;;;15.50;99.90;;;;;;5093811;28;20981;-82
2022/05/13 02:52:12;;;;;;;0.90;0.80;;;15.50;99.90;;;;;;5094426;28;20428;-82
2022/05/13 02:54:39;;;;;;;0.90;0.50;;;15.50;99.90;;;;;;5094333;28;20450;-82
2022/05/13 02:57:06;;;;;;;2.20;1.27;;;15.40;99.90;;;;;;5094127;28;20451;-82
2022/05/13 02:59:33;;;;;;;2.60;0.70;;;15.40;99.90;;;;;;5093726;28;20954;-81
2022/05/13 03:02:00;;;;;;;0.50;0.50;;;15.50;99.90;;;;;;5093885;28;20450;-82
2022/05/13 03:04:28;;;;;;;0.70;0.60;;;15.50;99.90;;;;;;5094011;28;20543;-82
2022/05/13 03:06:55;;;;;;;0.70;0.70;;;15.40;99.90;;;;;;5094000;28;20455;-82
2022/05/13 03:09:22;;;;;;;0.40;0.40;;;15.40;99.90;;;;;;5093788;28;20487;-82
2022/05/13 03:11:48;;;;;;;1.43;0.83;;;15.40;99.90;;;;;;5093896;28;20444;-81
2022/05/13 03:14:15;;;;;;;0.70;0.70;;;15.40;99.90;;;;;;5093844;28;20447;-82
2022/05/13 03:16:42;;;;;;;0.53;0.53;;;15.40;99.90;;;;;;5093818;28;20821;-82
2022/05/13 03:19:09;;;;;;;1.03;1.03;;;15.40;99.90;;;;;;5093751;28;20453;-82
2022/05/13 03:21:37;;;;;;;2.10;1.13;;;15.40;99.90;;;;;;5093436;28;20452;-82
2022/05/13 03:24:04;;;;;;;2.40;1.07;;;15.40;99.90;;;;;;5093352;28;20452;-82
2022/05/13 03:26:31;;;;;;;1.00;0.70;;;15.40;99.90;;;;;;5093659;28;20573;-83
2022/05/13 03:28:58;;;;;;;1.30;0.50;;;15.40;99.90;;;;;;5092887;28;20480;-82
2022/05/13 03:31:24;;;;;;;0.53;0.40;;;15.40;99.90;;;;;;5093542;28;20460;-82
2022/05/13 03:33:51;;;;;;;0.70;0.50;;;15.40;99.90;;;;;;5093550;28;20451;-82
2022/05/13 03:36:19;;;;;;;1.30;1.20;;;15.40;99.90;;;;;;5093568;28;20827;-82
2022/05/13 03:38:47;;;;;;;1.63;1.20;;;15.40;99.90;;;;;;5093213;28;20463;-82
2022/05/13 03:41:14;;;;;;;0.80;0.80;;;15.40;99.90;;;;;;5092990;28;20484;-83
2022/05/13 03:43:41;;;;;;;0.70;0.70;;;15.40;99.90;;;;;;5093231;28;20809;-82
2022/05/13 03:46:08;;;;;;;0.87;0.57;;;15.40;99.90;;;;;;5093173;28;20437;-82
2022/05/13 03:48:35;;;;;;;1.00;0.67;;;15.30;99.90;;;;;;5093371;28;20495;-83
2022/05/13 03:51:02;;;;;;;1.53;0.83;;;15.30;99.90;;;;;;5093032;28;20466;-82
2022/05/13 03:53:29;;;;;;;0.63;0.50;;;15.30;99.90;;;;;;5093289;28;20440;-82
2022/05/13 03:55:58;;;;;;;0.63;0.60;;;15.40;99.90;;;;;;5093303;28;20479;-82
2022/05/13 03:58:24;;;;;;;1.10;0.60;;;15.40;99.90;;;;;;5093238;28;20443;-82
2022/05/13 04:00:51;;;;;;;1.03;0.93;;;15.40;99.90;;;;;;5093213;28;20467;-82
2022/05/13 04:03:19;;;;;;;2.63;0.77;;;15.40;99.90;;;;;;5093289;28;20432;-82
2022/05/13 04:11:16;;;;;;;1.80;1.27;;;15.40;99.90;;;;;;5092920;28;20812;-82
2022/05/13 04:16:27;;;;;;;0.80;0.60;;;15.40;99.90;;;;;;5093086;28;20903;-82
2022/05/13 04:18:54;;;;;;;1.10;0.70;;;15.50;99.90;;;;;;5093129;28;20804;-82
2022/05/13 04:21:24;;;;;;;0.70;0.70;;;15.40;99.90;;;;;;5093007;28;20460;-82
2022/05/13 04:23:53;;;;;;;0.73;0.60;;;15.40;99.90;;;;;;5093565;28;20482;-82
2022/05/13 04:26:22;;;;;;;1.57;1.07;;;15.40;99.90;;;;;;5094111;28;20440;-82
2022/05/13 04:28:50;;;;;;;0.70;0.50;;;15.40;99.90;;;;;;5092858;28;21002;-82
2022/05/13 04:31:24;;;;;;;1.27;0.87;;;15.50;99.90;;;;;;5092666;28;20460;-81
2022/05/13 04:33:52;;;;;;;0.67;0.67;;;15.50;99.90;;;;;;5093087;28;20440;-82
2022/05/13 04:36:21;;;;;;;1.63;1.07;;;15.50;99.90;;;;;;5093006;28;20443;-82
2022/05/13 04:38:48;;;;;;;1.10;0.80;;;15.50;99.90;;;;;;5093607;28;20458;-82
2022/05/13 04:44:01;;;;;;;1.67;1.13;;;15.60;99.90;;;;;;5096614;28;21154;-82
2022/05/13 04:46:28;;;;;;;1.30;0.70;;;15.60;99.90;;;;;;5096920;28;20455;-81
2022/05/13 04:48:55;;;;;;;2.10;1.17;;;15.60;99.90;;;;;;5096597;28;20483;-81
2022/05/13 04:51:22;;;;;;;1.53;1.10;;;15.60;99.90;;;;;;5096533;28;20490;-81
2022/05/13 04:53:51;;;;;;;0.50;0.40;;;15.60;99.90;;;;;;5096267;28;20430;-81
2022/05/13 04:56:19;;;;;;;1.00;0.60;;;15.60;99.90;;;;;;5096505;28;20475;-81
2022/05/13 04:58:46;;;;;;;0.80;0.63;;;15.60;99.90;;;;;;5096407;28;20816;-81
2022/05/13 05:01:15;;;;;;;2.80;1.87;;;15.60;99.90;;;;;;5096290;28;20474;-81
2022/05/13 05:03:43;;;;;;;1.10;0.60;;;15.50;99.90;;;;;;5096325;28;20448;-81
2022/05/13 05:06:11;;;;;;;1.83;1.30;;;15.60;99.90;;;;;;5096594;28;20455;-81
2022/05/13 05:08:38;;;;;;;0.70;0.70;;;15.60;99.90;;;;;;5095939;28;20482;-80
2022/05/13 05:11:07;;;;;;;0.93;0.60;;;15.70;99.90;;;;;;5095864;28;20452;-80
2022/05/13 05:13:36;;;;;;;1.23;0.70;;;15.70;99.90;;;;;;5096371;28;20520;-81
2022/05/13 05:16:05;;;;;;;0.90;0.63;;;15.60;99.90;;;;;;5095817;28;20817;-80
2022/05/13 05:18:33;;;;;;;0.67;0.63;;;15.60;99.90;;;;;;5096032;28;20452;-80
2022/05/13 05:21:01;;;;;;;0.63;0.63;;;15.60;99.90;;;;;;5095963;28;20471;-80
2022/05/13 05:23:30;;;;;;;1.00;0.63;;;15.60;99.90;;;;;;5095736;28;20809;-80
2022/05/13 05:25:57;;;;;;;1.83;1.13;;;15.60;99.90;;;;;;5095916;28;20448;-80
2022/05/13 05:28:26;;;;;;;0.87;0.80;;;15.60;99.90;;;;;;5095477;28;20447;-80
2022/05/13 05:30:53;;;;;;;0.67;0.53;;;15.60;99.90;;;;;;5095528;28;20501;-80
2022/05/13 05:33:20;;;;;;;1.53;0.60;;;15.60;99.90;;;;;;5095550;28;20432;-79
2022/05/13 05:35:48;;;;;;;0.77;0.70;;;15.60;99.90;;;;;;5096003;28;20439;-80
2022/05/13 05:38:15;;;;;;;1.07;1.00;;;15.70;99.90;;;;;;5095656;28;20459;-80
2022/05/13 05:40:43;;;;;;;0.70;0.70;;;15.70;99.90;;;;;;5095210;28;20986;-80
2022/05/13 05:43:14;;;;;;;0.90;0.80;;;15.70;99.90;;;;;;5095624;28;20456;-80
2022/05/13 05:45:41;;;;;;;2.67;1.00;;;15.70;99.90;;;;;;5095634;28;20439;-80
2022/05/13 05:48:08;;;;;;;1.00;0.80;;;15.80;99.90;;;;;;5095520;28;20459;-80
2022/05/13 05:50:36;;;;;;;3.50;1.50;;;15.80;99.90;;;;;;5094697;28;20491;-80
2022/05/13 05:53:04;;;;;;;0.77;0.60;;;15.80;99.90;;;;;;5095466;28;20448;-80
2022/05/13 05:58:17;;;;;;;1.43;1.37;;;15.80;99.90;;;;;;5095152;28;20527;-80
2022/05/13 06:00:46;;;;;;;0.60;0.50;;;15.80;99.90;;;;;;5095168;28;20468;-80
2022/05/13 06:03:14;;;;;;;0.97;0.97;;;15.90;99.90;;;;;;5095141;28;20432;-80
2022/05/13 06:05:42;;;;;;;0.80;0.80;;;15.90;99.90;;;;;;5094798;28;20455;-80
2022/05/13 06:08:10;;;;;;;0.80;0.70;;;15.90;99.90;;;;;;5095096;28;20448;-80
2022/05/13 06:10:37;;;;;;;1.60;0.57;;;15.90;99.90;;;;;;5094854;28;20557;-80
2022/05/13 06:13:06;;;;;;;0.60;0.50;;;15.90;99.90;;;;;;5094712;28;20452;-80
2022/05/13 06:15:33;;;;;;;0.80;0.70;;;15.90;99.90;;;;;;5094940;28;20460;-80
2022/05/13 06:18:00;;;;;;;0.80;0.80;;;15.90;99.90;;;;;;5094881;28;20448;-79
2022/05/13 06:20:29;;;;;;;1.47;1.10;;;15.90;99.90;;;;;;5094794;28;20467;-80
2022/05/13 06:22:57;;;;;;;0.70;0.70;;;15.90;99.90;;;;;;5094977;28;20440;-80
2022/05/13 06:25:26;;;;;;;0.80;0.80;;;16.00;99.90;;;;;;5094467;28;20448;-80
2022/05/13 06:27:54;;;;;;;1.50;1.40;;;16.10;99.90;;;;;;5094393;28;20954;-80
2022/05/13 06:30:25;;;;;;;0.77;0.70;;;16.20;99.90;;;;;;5094738;28;20491;-80
2022/05/13 06:32:52;;;;;;;1.20;1.20;;;16.20;99.90;;;;;;5094740;28;20436;-80
2022/05/13 06:35:19;;;;;;;1.67;1.50;;;16.30;99.90;;;;;;5094621;28;20535;-80
2022/05/13 06:37:46;;;;;;;0.70;0.70;;;16.30;99.90;;;;;;5094543;28;20431;-80
2022/05/13 06:40:13;;;;;;;5.40;1.10;;;16.30;99.90;;;;;;5094235;28;20483;-80
2022/05/13 06:42:42;;;;;;;0.60;0.60;;;16.30;99.90;;;;;;5094985;28;20448;-80
2022/05/13 06:45:09;;;;;;;0.90;0.87;;;16.30;99.90;;;;;;5094664;28;20435;-80
2022/05/13 06:47:36;;;;;;;1.77;0.87;;;16.30;99.90;;;;;;5094341;28;20451;-80
2022/05/13 06:50:05;;;;;;;1.03;1.03;;;16.20;99.90;;;;;;5094140;28;20487;-80
2022/05/13 06:52:32;;;;;;;0.90;0.80;;;16.20;99.90;;;;;;5093966;28;20776;-80
2022/05/13 06:54:59;;;;;;;0.63;0.63;;;16.20;99.90;;;;;;5094312;28;20490;-80
2022/05/13 06:57:25;;;;;;;0.90;0.50;;;16.10;99.90;;;;;;5093871;28;20939;-80
2022/05/13 06:59:54;;;;;;;0.90;0.60;;;16.10;99.90;;;;;;5094204;28;20460;-80
2022/05/13 07:02:22;;;;;;;1.43;0.60;;;16.10;99.90;;;;;;5093157;28;20455;-80
2022/05/13 07:04:50;;;;;;;1.77;0.60;;;16.10;99.90;;;;;;5094069;28;20428;-80
2022/05/13 07:07:16;;;;;;;2.97;1.37;;;16.00;99.90;;;;;;5093729;28;20452;-80
2022/05/13 07:09:43;;;;;;;0.60;0.40;;;16.00;99.90;;;;;;5093836;28;20498;-80
2022/05/13 07:12:11;;;;;;;1.33;1.10;;;16.00;99.90;;;;;;5093896;28;20440;-80
2022/05/13 07:14:38;;;;;;;2.20;0.70;;;16.00;99.90;;;;;;5093957;28;20428;-79
2022/05/13 07:17:07;;;;;;;0.60;0.60;;;16.00;99.90;;;;;;5093777;28;20455;-80
2022/05/13 07:19:34;;;;;;;0.40;0.33;;;15.90;99.90;;;;;;5093688;28;20436;-80
2022/05/13 07:22:01;;;;;;;0.80;0.80;;;15.90;99.90;;;;;;5093490;28;20454;-79
2022/05/13 07:24:28;;;;;;;0.80;0.70;;;15.90;99.90;;;;;;5093759;28;20493;-79
2022/05/13 07:26:55;;;;;;;1.03;0.70;;;15.80;99.90;;;;;;5093632;28;20455;-79
2022/05/13 07:29:21;;;;;;;0.70;0.57;;;15.90;99.90;;;;;;5093690;28;20476;-79
2022/05/13 07:31:48;;;;;;;0.67;0.50;;;15.90;99.90;;;;;;5093829;28;20436;-79
2022/05/13 07:34:16;;;;;;;0.77;0.77;;;15.90;99.90;;;;;;5093505;28;20809;-79
2022/05/13 07:36:45;;;;;;;0.87;0.50;;;15.90;99.90;;;;;;5093186;28;20428;-79
2022/05/13 07:41:56;;;;;;;1.80;0.90;;;15.90;99.90;;;;;;5093267;28;20408;-79
2022/05/13 07:44:22;;;;;;;0.70;0.70;;;15.90;99.90;;;;;;5093420;28;20455;-80
2022/05/13 07:46:51;;;;;;;0.73;0.60;;;15.90;99.90;;;;;;5093329;28;20440;-79
2022/05/13 07:49:19;;;;;;;0.50;0.50;;;16.00;99.90;;;;;;5093103;28;20476;-79
2022/05/13 07:51:45;;;;;;;0.93;0.60;;;16.10;99.90;;;;;;5093295;28;20444;-79
2022/05/13 07:54:12;;;;;;;1.13;0.93;;;16.10;99.90;;;;;;5093190;28;20829;-79
2022/05/13 07:56:39;;;;;;;0.50;0.50;;;16.20;99.90;;;;;;5092999;28;20466;-79
2022/05/13 07:59:06;;;;;;;0.70;0.70;;;16.20;99.90;;;;;;5093278;28;20447;-79
2022/05/13 08:01:32;;;;;;;0.70;0.60;;;16.30;99.90;;;;;;5092842;28;21022;-79
2022/05/13 08:03:59;;;;;;;0.50;0.50;;;16.30;99.90;;;;;;5092952;28;20948;-79
2022/05/13 08:06:27;;;;;;;0.40;0.40;;;16.40;99.90;;;;;;5093155;28;20447;-79
2022/05/13 08:08:56;;;;;;;0.40;0.40;;;16.60;99.90;;;;;;5093373;28;20447;-83
2022/05/13 08:11:24;;;;;;;0.50;0.50;;;16.70;99.90;;;;;;5092645;28;21063;-83
2022/05/13 08:13:51;;;;;;;0.77;0.57;;;16.90;99.90;;;;;;5093979;28;20450;-83
2022/05/13 08:16:21;;;;;;;0.50;0.50;;;17.20;99.90;;;;;;5097271;28;20452;-83
2022/05/13 08:18:49;;;;;;;0.70;0.50;;;17.30;99.90;;;;;;5097069;28;20451;-83
2022/05/13 08:21:15;;;;;;;3.07;0.50;;;17.30;99.90;;;;;;5097151;28;20525;-83
2022/05/13 08:23:44;;;;;;;2.10;0.50;;;17.20;99.90;;;;;;5097175;28;20436;-84
2022/05/13 08:26:11;;;;;;;0.40;0.40;;;17.00;99.90;;;;;;5097183;28;20421;-83
2022/05/13 08:28:39;;;;;;;0.80;0.60;;;16.90;99.90;;;;;;5097056;28;20458;-83
2022/05/13 08:31:07;;;;;;;0.87;0.60;;;17.00;99.90;;;;;;5096657;28;20507;-84
2022/05/13 08:33:34;;;;;;;0.80;0.80;;;16.90;99.90;;;;;;5097260;28;20925;-83
2022/05/13 08:36:04;;;;;;;0.80;0.80;;;16.90;99.90;;;;;;5097305;28;20454;-83
2022/05/13 08:38:34;;;;;;;0.60;0.60;;;17.00;99.90;;;;;;5096565;28;20911;-83
2022/05/13 08:41:14;;;;;;;1.93;0.60;;;17.00;99.90;;;;;;5096454;28;20475;-83
2022/05/13 08:43:43;;;;;;;0.70;0.50;;;17.30;99.90;;;;;;5096764;28;20431;-83
2022/05/13 08:46:15;;;;;;;0.60;0.40;;;17.40;99.90;;;;;;5096691;28;20436;-83
2022/05/13 08:48:49;;;;;;;0.60;0.60;;;17.60;99.90;;;;;;5096390;28;20446;-83
2022/05/13 08:51:19;;;;;;;0.50;0.50;;;17.80;99.90;;;;;;5096562;28;20493;-83
2022/05/13 08:53:54;;;;;;;0.50;0.50;;;17.90;99.90;;;;;;5096607;28;20436;-83
2022/05/13 08:56:26;;;;;;;0.90;0.60;;;18.00;99.90;;;;;;5096559;28;20432;-83
2022/05/13 08:58:59;;;;;;;0.93;0.90;;;18.00;99.90;;;;;;5096491;28;20527;-83
2022/05/13 09:01:29;;;;;;;0.60;0.60;;;18.10;99.90;;;;;;5096322;28;20467;-83
2022/05/13 09:04:02;;;;;;;2.00;1.10;;;18.10;99.90;;;;;;5096464;28;20431;-81
2022/05/13 09:06:39;;;;;;;0.60;0.60;;;18.30;99.90;;;;;;5096608;28;20432;-81
2022/05/13 09:09:09;;;;;;;3.53;0.53;;;18.40;99.90;;;;;;5096689;28;20793;-82
2022/05/13 09:11:44;;;;;;;0.83;0.70;;;18.30;99.90;;;;;;5096079;28;20486;-82
2022/05/13 09:14:23;;;;;;;0.63;0.50;;;18.20;99.90;;;;;;5096156;28;20976;-83
2022/05/13 09:16:58;;;;;;;0.57;0.57;;;18.10;99.90;;;;;;5096118;28;20447;-84
2022/05/13 09:19:31;;;;;;;0.50;0.50;;;18.10;99.90;;;;;;5096013;28;20428;-83
2022/05/13 09:21:59;;;;;;;0.50;0.50;;;18.10;99.90;;;;;;5096194;28;20436;-84
2022/05/13 09:24:26;;;;;;;0.70;0.40;;;18.10;99.90;;;;;;5096016;28;20451;-83
2022/05/13 09:26:54;;;;;;;0.70;0.70;;;18.00;99.90;;;;;;5094902;28;20440;-84
2022/05/13 09:29:20;;;;;;;0.50;0.50;;;17.90;99.90;;;;;;5095561;28;20436;-83
2022/05/13 09:32:02;;;;;;;0.50;0.50;;;17.90;99.90;;;;;;5095513;28;20546;-83
2022/05/13 09:34:34;;;;;;;3.40;0.50;;;18.00;99.90;;;;;;5095822;28;20436;-83
2022/05/13 09:37:12;;;;;;;0.60;0.60;;;18.10;99.90;;;;;;5095752;28;20436;-83
2022/05/13 09:39:41;;;;;;;0.90;0.90;;;18.30;99.90;;;;;;5095869;28;20483;-83
2022/05/13 09:42:24;;;;;;;0.50;0.50;;;18.40;99.90;;;;;;5095641;28;20409;-83
2022/05/13 09:44:52;;;;;;;1.47;0.80;;;18.50;99.90;;;;;;5095237;28;20544;-83
2022/05/13 09:47:30;;;;;;;0.70;0.70;;;18.50;99.90;;;;;;5095189;28;20894;-83
2022/05/13 09:50:00;;;;;;;0.50;0.50;;;18.50;99.90;;;;;;5095588;28;20475;-82
2022/05/13 09:52:30;;;;;;;1.20;0.63;;;18.40;99.90;;;;;;5095208;28;20934;-82
2022/05/13 09:55:06;;;;;;;0.40;0.40;;;18.40;99.90;;;;;;5095459;28;20431;-83
2022/05/13 09:57:35;;;;;;;1.10;1.00;;;18.50;99.90;;;;;;5095358;28;20523;-83
2022/05/13 10:00:06;;;;;;;0.50;0.50;;;18.50;99.90;;;;;;5095156;28;20966;-83
2022/05/13 10:02:35;;;;;;;0.50;0.50;;;18.50;99.90;;;;;;5094987;28;20432;-81
2022/05/13 10:05:15;;;;;;;0.50;0.50;;;18.50;99.90;;;;;;5095121;28;20957;-82
2022/05/13 10:07:56;;;;;;;0.50;0.50;;;18.50;99.90;;;;;;5095485;28;20432;-89
2022/05/13 10:16:13;;;;;;;0.87;0.50;;;18.60;99.90;;;;;;5012772;28;20438;-83
2022/05/13 10:18:48;;;;;;;1.07;0.70;;;18.50;99.90;;;;;;5070973;28;20942;-83
2022/05/13 10:21:20;;;;;;;0.80;0.60;;;18.50;99.90;;;;;;5094790;28;20466;-83
2022/05/13 10:23:54;;;;;;;0.70;0.57;;;18.40;99.90;;;;;;5094875;28;20439;-83
2022/05/13 10:26:25;;;;;;;0.83;0.83;;;18.30;99.90;;;;;;5094815;28;20439;-83
2022/05/13 10:29:06;;;;;;;2.77;0.50;;;18.30;99.90;;;;;;5094500;28;20424;-83
2022/05/13 10:31:40;;;;;;;0.90;0.60;;;18.30;99.90;;;;;;5094484;28;20483;-83
2022/05/13 10:34:17;;;;;;;0.57;0.57;;;18.40;99.90;;;;;;5094687;28;20465;-84
2022/05/13 10:36:52;;;;;;;4.40;0.60;;;18.40;99.90;;;;;;5094852;28;20898;-83
2022/05/13 10:39:23;;;;;;;0.63;0.63;;;18.50;99.90;;;;;;5094978;28;20412;-86
2022/05/13 10:41:57;;;;;;;0.50;0.50;;;18.50;99.90;;;;;;5086674;28;20417;-86
2022/05/13 10:44:37;;;;;;;1.47;0.50;;;18.50;99.90;;;;;;5094840;28;20774;-83
2022/05/13 10:47:09;;;;;;;0.50;0.50;;;18.50;99.90;;;;;;5095060;28;20428;-86
2022/05/13 10:49:39;;;;;;;1.03;0.63;;;18.50;99.90;;;;;;5094764;28;20464;-86
2022/05/13 10:52:13;;;;;;;0.80;0.70;;;18.60;99.90;;;;;;5094758;28;20476;-86
2022/05/13 10:54:49;;;;;;;0.80;0.67;;;18.60;99.90;;;;;;5094823;28;20436;-87
2022/05/13 10:57:31;;;;;;;0.80;0.53;;;18.70;99.90;;;;;;5094391;28;20871;-81
2022/05/13 11:00:14;;;;;;;1.60;0.60;;;18.70;99.90;;;;;;5094153;28;20479;-79
2022/05/13 11:03:14;;;;;;;3.30;0.50;;;18.60;99.90;;;;;;5094127;28;20427;-81
2022/05/13 11:05:50;;;;;;;1.00;0.70;;;18.60;99.90;;;;;;5094589;28;20432;-86
2022/05/13 11:08:23;;;;;;;1.43;0.50;;;18.70;99.90;;;;;;5094242;28;20419;-80
2022/05/13 11:11:01;;;;;;;1.63;0.60;;;18.70;99.90;;;;;;5093927;28;20847;-81
2022/05/13 11:13:42;;;;;;;0.70;0.70;;;18.80;99.90;;;;;;5094018;28;20446;-84
2022/05/13 11:16:16;;;;;;;0.60;0.60;;;19.00;99.90;;;;;;5094002;28;20851;-86
2022/05/13 11:18:54;;;;;;;1.20;0.87;;;19.10;99.90;;;;;;5093976;28;20462;-84
2022/05/13 11:21:31;;;;;;;0.87;0.60;;;19.00;99.90;;;;;;5093521;28;20848;-84
2022/05/13 11:27:19;;;;;;;1.00;0.87;;;19.00;99.90;;;;;;5046939;28;20512;-84
2022/05/13 11:29:53;;;;;;;0.70;0.50;;;18.80;99.90;;;;;;5051083;28;20469;-84
2022/05/13 11:32:27;;;;;;;0.60;0.60;;;18.70;99.90;;;;;;5071100;28;20978;-85
2022/05/13 11:35:10;;;;;;;1.17;0.67;;;18.60;99.90;;;;;;5093429;28;20439;-84
2022/05/13 11:37:41;;;;;;;1.30;0.80;;;18.60;99.90;;;;;;5093630;28;20432;-84
2022/05/13 11:40:18;;;;;;;0.70;0.70;;;18.40;99.90;;;;;;5093603;28;20480;-84
2022/05/13 11:45:55;;;;;;;1.53;0.80;;;18.60;99.90;;;;;;5093592;28;20427;-83
2022/05/13 11:48:28;;;;;;;0.70;0.70;;;18.80;99.90;;;;;;5092605;28;20768;-84
2022/05/13 11:51:02;;;;;;;1.53;0.97;;;19.00;99.90;;;;;;5093380;28;20848;-84
2022/05/13 11:53:48;;;;;;;0.93;0.67;;;19.20;99.90;;;;;;5093561;28;20431;-83
2022/05/13 11:56:19;;;;;;;0.90;0.70;;;19.60;99.90;;;;;;5093374;28;20434;-84
2022/05/13 11:58:52;;;;;;;0.97;0.97;;;19.90;99.90;;;;;;5093358;28;20443;-83
2022/05/13 12:02:08;;;;;;;1.43;0.80;;;20.20;99.90;;;;;;5093559;28;20463;-84
2022/05/13 12:04:39;;;;;;;1.17;1.17;;;20.50;99.90;;;;;;5092989;28;20764;-84
2022/05/13 12:07:28;;;;;;;0.70;0.70;;;20.70;99.90;;;;;;5093315;28;20427;-84
2022/05/13 12:09:56;;;;;;;1.37;0.70;;;20.70;99.90;;;;;;5093205;28;20466;-84
2022/05/13 12:12:38;;;;;;;0.60;0.60;;;20.50;99.90;;;;;;5092873;28;20851;-84
2022/05/13 12:15:11;;;;;;;0.80;0.70;;;20.50;99.90;;;;;;5093214;28;20497;-84
2022/05/13 12:17:47;;;;;;;1.53;1.43;;;20.50;99.90;;;;;;5093231;28;20789;-85
2022/05/13 12:20:28;;;;;;;1.37;0.97;;;20.40;99.90;;;;;;5093431;28;20463;-84
2022/05/13 12:23:03;;;;;;;1.53;0.70;;;20.30;99.90;;;;;;5092886;28;20915;-84
2022/05/13 12:25:49;;;;;;;1.17;0.90;;;20.20;99.90;;;;;;5093376;28;20435;-83
2022/05/13 12:28:29;;;;;;;0.60;0.60;;;20.20;99.90;;;;;;5093177;28;20431;-84
2022/05/13 12:30:56;;;;;;;1.10;0.90;;;20.10;99.90;;;;;;5093061;28;20494;-84
2022/05/13 12:33:39;;;;;;;1.30;1.20;;;20.00;99.90;;;;;;5093192;28;20438;-84
2022/05/13 12:39:12;;;;;;;1.33;0.70;;;20.00;99.90;;;;;;5046585;28;20643;-84
2022/05/13 12:41:51;;;;;;;1.10;0.80;;;20.00;99.90;;;;;;5091690;28;20839;-84
2022/05/13 12:44:25;;;;;;;0.73;0.73;;;19.90;99.90;;;;;;5093022;28;20440;-84
2022/05/13 12:46:54;;;;;;;1.00;0.90;;;19.80;99.90;;;;;;5093224;28;20430;-84
2022/05/13 12:49:25;;;;;;;1.73;0.90;;;19.80;99.90;;;;;;5092508;28;20933;-84
2022/05/13 12:52:04;;;;;;;0.70;0.70;;;19.70;99.90;;;;;;5092658;28;20825;-84
2022/05/13 12:54:38;;;;;;;0.90;0.90;;;19.70;99.90;;;;;;5092989;28;20435;-84
2022/05/13 12:57:12;;;;;;;0.60;0.60;;;19.60;99.90;;;;;;5093179;28;20431;-84
2022/05/13 12:59:42;;;;;;;0.80;0.60;;;19.50;99.90;;;;;;5093891;28;20474;-84
2022/05/13 13:02:10;;;;;;;2.00;1.10;;;19.40;99.90;;;;;;5096596;28;20436;-84
2022/05/13 13:04:48;;;;;;;0.70;0.70;;;19.40;99.90;;;;;;5096578;28;20443;-85
2022/05/13 13:07:20;;;;;;;0.70;0.70;;;19.40;99.90;;;;;;5096588;28;20431;-85
2022/05/13 13:09:50;;;;;;;0.70;0.70;;;19.40;99.90;;;;;;5096549;28;20475;-84
2022/05/13 13:12:22;;;;;;;0.50;0.50;;;19.40;99.90;;;;;;5096315;28;20501;-84
2022/05/13 13:14:55;;;;;;;0.77;0.60;;;19.40;99.90;;;;;;5096321;28;20440;-84
2022/05/13 13:17:31;;;;;;;0.80;0.80;;;19.50;99.90;;;;;;5096243;28;20419;-85
2022/05/13 13:19:59;;;;;;;0.87;0.60;;;19.40;99.90;;;;;;5096035;28;20471;-85
2022/05/13 13:22:33;;;;;;;1.57;1.13;;;19.40;99.90;;;;;;5095761;28;20447;-84
2022/05/13 13:25:00;;;;;;;1.30;0.60;;;19.30;99.90;;;;;;5096123;28;20428;-84
2022/05/13 13:27:32;;;;;;;0.60;0.50;;;19.30;99.90;;;;;;5096025;28;20456;-84
2022/05/13 13:30:02;;;;;;;1.13;1.03;;;19.40;99.90;;;;;;5096576;28;20476;-84
2022/05/13 13:32:28;;;;;;;1.80;0.60;;;19.40;99.90;;;;;;5095869;28;20491;-84
2022/05/13 13:34:58;;;;;;;0.90;0.80;;;19.40;99.90;;;;;;5095817;28;20459;-84
2022/05/13 13:37:29;;;;;;;0.50;0.50;;;19.50;99.90;;;;;;5095519;28;20459;-85